sensor_id;sensor_type;location;lat;lon;timestamp;temperature;humidity
25170;DHT22;13129;48.012;10.352;2023-04-25T03:31:46;5.40;99.90
25170;DHT22;13129;48.012;10.352;2023-04-25T03:34:12;5.40;99.90
25170;DHT22;13129;48.012;10.352;2023-04-25T03:36:39;5.50;99.90
25170;DHT22;13129;48.012;10.352;2023-04-25T03:39:05;5.60;99.90
25170;DHT22;13129;48.012;10.352;2023-04-25T03:41:32;5.60;99.90
25170;DHT22;13129;48.012;10.352;2023-04-25T03:43:57;5.70;99.90
25170;DHT22;13129;48.012;10.352;2023-04-25T03:46:23;5.70;99.90
25170;DHT22;13129;48.012;10.352;2023-04-25T03:48:48;5.80;99.90
25170;DHT22;13129;48.012;10.352;2023-04-25T03:51:14;5.80;99.90
25170;DHT22;13129;48.012;10.352;2023-04-25T03:53:40;5.80;99.90
25170;DHT22;13129;48.012;10.352;2023-04-25T03:56:06;5.90;99.90
25170;DHT22;13129;48.012;10.352;2023-04-25T03:58:31;5.90;99.90
25170;DHT22;13129;48.012;10.352;2023-04-25T04:00:57;5.90;99.90
25170;DHT22;13129;48.012;10.352;2023-04-25T04:03:22;5.90;99.90
25170;DHT22;13129;48.012;10.352;2023-04-25T04:05:48;5.90;99.90
25170;DHT22;13129;48.012;10.352;2023-04-25T04:08:15;5.90;99.90
25170;DHT22;13129;48.012;10.352;2023-04-25T04:10:41;5.90;99.90
25170;DHT22;13129;48.012;10.352;2023-04-25T04:13:06;5.90;99.90
25170;DHT22;13129;48.012;10.352;2023-04-25T04:15:32;5.90;99.90
25170;DHT22;13129;48.012;10.352;2023-04-25T04:17:58;5.80;99.90
25170;DHT22;13129;48.012;10.352;2023-04-25T04:20:28;5.80;99.90
25170;DHT22;13129;48.012;10.352;2023-04-25T04:22:54;5.80;99.90
25170;DHT22;13129;48.012;10.352;2023-04-25T04:25:20;5.70;99.90
25170;DHT22;13129;48.012;10.352;2023-04-25T04:27:45;5.70;99.90
25170;DHT22;13129;48.012;10.352;2023-04-25T04:30:11;5.70;99.90
25170;DHT22;13129;48.012;10.352;2023-04-25T04:32:37;5.70;99.90
25170;DHT22;13129;48.012;10.352;2023-04-25T04:35:04;5.70;99.90
25170;DHT22;13129;48.012;10.352;2023-04-25T04:37:30;5.70;99.90
25170;DHT22;13129;48.012;10.352;2023-04-25T04:39:56;5.70;99.90
25170;DHT22;13129;48.012;10.352;2023-04-25T04:42:22;5.70;99.90
25170;DHT22;13129;48.012;10.352;2023-04-25T04:44:49;5.70;99.90
25170;DHT22;13129;48.012;10.352;2023-04-25T04:47:15;5.70;99.90
25170;DHT22;13129;48.012;10.352;2023-04-25T04:49:41;5.70;99.90
25170;DHT22;13129;48.012;10.352;2023-04-25T04:52:06;5.60;99.90
25170;DHT22;13129;48.012;10.352;2023-04-25T04:54:32;5.70;99.90
25170;DHT22;13129;48.012;10.352;2023-04-25T04:56:59;5.90;99.90
25170;DHT22;13129;48.012;10.352;2023-04-25T04:59:24;6.00;99.90
25170;DHT22;13129;48.012;10.352;2023-04-25T05:01:50;6.00;99.90
25170;DHT22;13129;48.012;10.352;2023-04-25T05:04:16;6.00;99.90
25170;DHT22;13129;48.012;10.352;2023-04-25T05:06:41;6.10;99.90
25170;DHT22;13129;48.012;10.352;2023-04-25T05:09:07;6.30;99.90
25170;DHT22;13129;48.012;10.352;2023-04-25T05:11:32;6.50;99.90
25170;DHT22;13129;48.012;10.352;2023-04-25T05:13:58;6.80;99.90
25170;DHT22;13129;48.012;10.352;2023-04-25T05:16:24;7.10;99.90
25170;DHT22;13129;48.012;10.352;2023-04-25T05:18:49;7.30;99.90
25170;DHT22;13129;48.012;10.352;2023-04-25T05:21:15;7.70;99.90
25170;DHT22;13129;48.012;10.352;2023-04-25T05:23:41;8.50;99.90
25170;DHT22;13129;48.012;10.352;2023-04-25T05:26:07;9.40;99.90
25170;DHT22;13129;48.012;10.352;2023-04-25T05:28:41;10.70;99.90
25170;DHT22;13129;48.012;10.352;2023-04-25T05:31:09;11.60;99.90
25170;DHT22;13129;48.012;10.352;2023-04-25T05:33:35;11.90;99.90
25170;DHT22;13129;48.012;10.352;2023-04-25T05:36:01;11.60;99.90
25170;DHT22;13129;48.012;10.352;2023-04-25T05:38:26;11.00;99.90
25170;DHT22;13129;48.012;10.352;2023-04-25T05:40:52;10.40;99.90
25170;DHT22;13129;48.012;10.352;2023-04-25T05:43:18;9.90;99.90
25170;DHT22;13129;48.012;10.352;2023-04-25T05:45:43;9.50;99.90
25170;DHT22;13129;48.012;10.352;2023-04-25T05:48:09;9.20;99.90
25170;DHT22;13129;48.012;10.352;2023-04-25T05:50:34;9.00;99.90
25170;DHT22;13129;48.012;10.352;2023-04-25T05:53:00;8.90;99.90
25170;DHT22;13129;48.012;10.352;2023-04-25T05:55:26;8.70;99.90
25170;DHT22;13129;48.012;10.352;2023-04-25T05:57:52;8.60;99.90
25170;DHT22;13129;48.012;10.352;2023-04-25T06:00:17;8.50;99.90
25170;DHT22;13129;48.012;10.352;2023-04-25T06:02:44;8.40;99.90
25170;DHT22;13129;48.012;10.352;2023-04-25T06:05:10;8.20;99.90
25170;DHT22;13129;48.012;10.352;2023-04-25T06:07:35;8.10;99.90
25170;DHT22;13129;48.012;10.352;2023-04-25T06:10:01;8.30;99.90
25170;DHT22;13129;48.012;10.352;2023-04-25T06:12:26;9.30;99.90
25170;DHT22;13129;48.012;10.352;2023-04-25T06:14:52;11.60;99.90
25170;DHT22;13129;48.012;10.352;2023-04-25T06:17:18;14.30;99.90
25170;DHT22;13129;48.012;10.352;2023-04-25T06:19:43;16.70;99.90
25170;DHT22;13129;48.012;10.352;2023-04-25T06:22:09;18.70;99.90
25170;DHT22;13129;48.012;10.352;2023-04-25T06:24:35;20.50;96.70
25170;DHT22;13129;48.012;10.352;2023-04-25T06:27:02;21.90;91.30
25170;DHT22;13129;48.012;10.352;2023-04-25T06:29:28;23.00;82.90
25170;DHT22;13129;48.012;10.352;2023-04-25T06:31:54;23.60;77.80
25170;DHT22;13129;48.012;10.352;2023-04-25T06:34:20;22.80;70.80
25170;DHT22;13129;48.012;10.352;2023-04-25T06:36:45;21.60;72.50
25170;DHT22;13129;48.012;10.352;2023-04-25T06:39:11;21.70;75.10
25170;DHT22;13129;48.012;10.352;2023-04-25T06:41:37;22.00;71.60
25170;DHT22;13129;48.012;10.352;2023-04-25T06:44:02;22.90;70.50
25170;DHT22;13129;48.012;10.352;2023-04-25T06:46:28;24.00;66.90
25170;DHT22;13129;48.012;10.352;2023-04-25T06:48:54;24.90;65.10
25170;DHT22;13129;48.012;10.352;2023-04-25T06:51:19;25.60;61.00
25170;DHT22;13129;48.012;10.352;2023-04-25T06:53:45;26.00;59.20
25170;DHT22;13129;48.012;10.352;2023-04-25T06:56:11;26.20;58.30
25170;DHT22;13129;48.012;10.352;2023-04-25T06:58:36;26.90;57.10
25170;DHT22;13129;48.012;10.352;2023-04-25T07:01:02;27.10;55.70
25170;DHT22;13129;48.012;10.352;2023-04-25T07:03:28;27.90;54.20
25170;DHT22;13129;48.012;10.352;2023-04-25T07:05:53;27.60;52.10
25170;DHT22;13129;48.012;10.352;2023-04-25T07:08:19;27.30;51.30
25170;DHT22;13129;48.012;10.352;2023-04-25T07:10:46;27.50;51.50
25170;DHT22;13129;48.012;10.352;2023-04-25T07:13:12;28.00;51.40
25170;DHT22;13129;48.012;10.352;2023-04-25T07:15:38;29.00;49.90
25170;DHT22;13129;48.012;10.352;2023-04-25T07:18:03;29.60;48.80
25170;DHT22;13129;48.012;10.352;2023-04-25T07:20:29;28.30;48.00
25170;DHT22;13129;48.012;10.352;2023-04-25T07:22:56;28.00;48.30
25170;DHT22;13129;48.012;10.352;2023-04-25T07:25:22;28.50;48.70
25170;DHT22;13129;48.012;10.352;2023-04-25T07:27:48;29.20;46.70
25170;DHT22;13129;48.012;10.352;2023-04-25T07:30:14;29.40;45.90
25170;DHT22;13129;48.012;10.352;2023-04-25T07:32:40;28.90;45.00
25170;DHT22;13129;48.012;10.352;2023-04-25T07:35:06;29.30;46.80
25170;DHT22;13129;48.012;10.352;2023-04-25T07:37:33;29.80;45.60
25170;DHT22;13129;48.012;10.352;2023-04-25T07:39:59;28.30;45.30
25170;DHT22;13129;48.012;10.352;2023-04-25T07:42:24;26.90;46.90
25170;DHT22;13129;48.012;10.352;2023-04-25T07:44:50;25.10;47.90
25170;DHT22;13129;48.012;10.352;2023-04-25T07:47:17;24.80;50.30
25170;DHT22;13129;48.012;10.352;2023-04-25T07:49:44;24.70;50.20
25170;DHT22;13129;48.012;10.352;2023-04-25T07:52:10;24.80;49.20
25170;DHT22;13129;48.012;10.352;2023-04-25T07:54:36;25.20;49.10
25170;DHT22;13129;48.012;10.352;2023-04-25T07:57:02;26.00;48.30
25170;DHT22;13129;48.012;10.352;2023-04-25T07:59:28;27.00;46.70
25170;DHT22;13129;48.012;10.352;2023-04-25T08:01:53;25.80;45.70
25170;DHT22;13129;48.012;10.352;2023-04-25T08:04:19;24.40;47.60
25170;DHT22;13129;48.012;10.352;2023-04-25T08:06:45;22.40;50.30
25170;DHT22;13129;48.012;10.352;2023-04-25T08:09:11;20.20;53.40
25170;DHT22;13129;48.012;10.352;2023-04-25T08:11:37;18.10;57.20
25170;DHT22;13129;48.012;10.352;2023-04-25T08:14:02;16.40;60.60
25170;DHT22;13129;48.012;10.352;2023-04-25T08:16:28;15.30;64.20
25170;DHT22;13129;48.012;10.352;2023-04-25T08:18:54;14.40;67.10
25170;DHT22;13129;48.012;10.352;2023-04-25T08:21:20;13.70;68.70
25170;DHT22;13129;48.012;10.352;2023-04-25T08:23:45;13.20;70.20
25170;DHT22;13129;48.012;10.352;2023-04-25T08:26:11;12.80;71.40
25170;DHT22;13129;48.012;10.352;2023-04-25T08:28:37;12.60;72.50
25170;DHT22;13129;48.012;10.352;2023-04-25T08:31:03;12.40;73.70
25170;DHT22;13129;48.012;10.352;2023-04-25T08:33:28;12.10;74.00
25170;DHT22;13129;48.012;10.352;2023-04-25T08:35:55;11.80;74.60
25170;DHT22;13129;48.012;10.352;2023-04-25T08:38:21;11.70;75.20
25170;DHT22;13129;48.012;10.352;2023-04-25T08:40:49;11.40;75.40
25170;DHT22;13129;48.012;10.352;2023-04-25T08:43:18;11.20;76.10
25170;DHT22;13129;48.012;10.352;2023-04-25T08:45:44;10.90;77.80
25170;DHT22;13129;48.012;10.352;2023-04-25T08:48:13;10.70;79.00
25170;DHT22;13129;48.012;10.352;2023-04-25T08:50:59;10.60;80.00
25170;DHT22;13129;48.012;10.352;2023-04-25T08:53:28;10.50;81.60
25170;DHT22;13129;48.012;10.352;2023-04-25T08:55:55;10.50;82.20
25170;DHT22;13129;48.012;10.352;2023-04-25T08:58:21;10.60;83.00
25170;DHT22;13129;48.012;10.352;2023-04-25T09:00:48;10.90;83.00
25170;DHT22;13129;48.012;10.352;2023-04-25T09:03:13;11.10;83.00
25170;DHT22;13129;48.012;10.352;2023-04-25T09:05:40;11.20;83.00
25170;DHT22;13129;48.012;10.352;2023-04-25T09:08:06;11.30;83.00
25170;DHT22;13129;48.012;10.352;2023-04-25T09:10:32;11.40;82.50
25170;DHT22;13129;48.012;10.352;2023-04-25T09:13:06;11.50;81.70
25170;DHT22;13129;48.012;10.352;2023-04-25T09:15:32;11.60;81.60
25170;DHT22;13129;48.012;10.352;2023-04-25T09:17:59;11.50;81.70
25170;DHT22;13129;48.012;10.352;2023-04-25T09:20:25;11.60;81.90
25170;DHT22;13129;48.012;10.352;2023-04-25T09:23:04;11.60;81.90
25170;DHT22;13129;48.012;10.352;2023-04-25T09:25:37;11.50;81.60
25170;DHT22;13129;48.012;10.352;2023-04-25T09:28:06;11.40;82.00
25170;DHT22;13129;48.012;10.352;2023-04-25T09:30:33;11.20;82.00
25170;DHT22;13129;48.012;10.352;2023-04-25T09:33:07;10.90;82.50
25170;DHT22;13129;48.012;10.352;2023-04-25T09:35:43;10.50;84.00
25170;DHT22;13129;48.012;10.352;2023-04-25T09:38:14;10.10;85.00
25170;DHT22;13129;48.012;10.352;2023-04-25T09:40:41;9.70;87.20
25170;DHT22;13129;48.012;10.352;2023-04-25T09:43:25;9.30;88.70
25170;DHT22;13129;48.012;10.352;2023-04-25T09:45:53;9.10;90.10
25170;DHT22;13129;48.012;10.352;2023-04-25T09:48:22;8.80;90.90
25170;DHT22;13129;48.012;10.352;2023-04-25T09:53:37;8.20;92.30
25170;DHT22;13129;48.012;10.352;2023-04-25T09:56:03;8.00;92.60
25170;DHT22;13129;48.012;10.352;2023-04-25T09:58:30;8.00;93.20
25170;DHT22;13129;48.012;10.352;2023-04-25T10:01:00;7.90;93.70
25170;DHT22;13129;48.012;10.352;2023-04-25T10:03:26;7.90;94.20
25170;DHT22;13129;48.012;10.352;2023-04-25T10:05:58;7.70;94.50
25170;DHT22;13129;48.012;10.352;2023-04-25T10:08:24;7.50;95.00
25170;DHT22;13129;48.012;10.352;2023-04-25T10:10:52;7.50;95.60
25170;DHT22;13129;48.012;10.352;2023-04-25T10:13:18;7.40;96.40
25170;DHT22;13129;48.012;10.352;2023-04-25T10:16:04;7.50;97.30
25170;DHT22;13129;48.012;10.352;2023-04-25T10:18:48;7.50;98.00
25170;DHT22;13129;48.012;10.352;2023-04-25T10:21:16;7.60;98.70
25170;DHT22;13129;48.012;10.352;2023-04-25T10:23:43;7.50;99.40
25170;DHT22;13129;48.012;10.352;2023-04-25T10:26:10;7.50;99.90
25170;DHT22;13129;48.012;10.352;2023-04-25T10:29:10;7.70;99.90
25170;DHT22;13129;48.012;10.352;2023-04-25T10:31:45;7.90;99.90
25170;DHT22;13129;48.012;10.352;2023-04-25T10:34:12;8.00;99.90
25170;DHT22;13129;48.012;10.352;2023-04-25T10:36:37;8.10;99.90
25170;DHT22;13129;48.012;10.352;2023-04-25T10:39:05;8.20;99.90
25170;DHT22;13129;48.012;10.352;2023-04-25T10:41:52;8.30;99.90
25170;DHT22;13129;48.012;10.352;2023-04-25T10:44:18;8.40;99.90
25170;DHT22;13129;48.012;10.352;2023-04-25T10:46:44;8.30;99.90
25170;DHT22;13129;48.012;10.352;2023-04-25T10:49:11;8.40;99.90
25170;DHT22;13129;48.012;10.352;2023-04-25T10:54:40;8.60;99.90
25170;DHT22;13129;48.012;10.352;2023-04-25T10:57:06;8.50;99.90
25170;DHT22;13129;48.012;10.352;2023-04-25T10:59:32;8.60;99.90
25170;DHT22;13129;48.012;10.352;2023-04-25T11:01:57;8.70;99.90
25170;DHT22;13129;48.012;10.352;2023-04-25T11:04:31;8.80;99.90
25170;DHT22;13129;48.012;10.352;2023-04-25T11:07:13;9.00;99.90
25170;DHT22;13129;48.012;10.352;2023-04-25T11:09:45;9.30;99.90
25170;DHT22;13129;48.012;10.352;2023-04-25T11:12:11;9.50;99.90
25170;DHT22;13129;48.012;10.352;2023-04-25T11:14:40;9.60;99.90
25170;DHT22;13129;48.012;10.352;2023-04-25T11:17:06;9.80;99.90
25170;DHT22;13129;48.012;10.352;2023-04-25T11:19:32;10.30;99.90
25170;DHT22;13129;48.012;10.352;2023-04-25T11:21:59;10.80;99.90
25170;DHT22;13129;48.012;10.352;2023-04-25T11:24:33;11.20;99.90
25170;DHT22;13129;48.012;10.352;2023-04-25T11:27:03;11.50;99.90
25170;DHT22;13129;48.012;10.352;2023-04-25T11:29:30;11.70;99.90
25170;DHT22;13129;48.012;10.352;2023-04-25T11:31:57;11.60;99.90
25170;DHT22;13129;48.012;10.352;2023-04-25T11:34:26;11.40;99.90
25170;DHT22;13129;48.012;10.352;2023-04-25T11:36:53;11.10;99.90
25170;DHT22;13129;48.012;10.352;2023-04-25T11:39:19;11.00;99.90
25170;DHT22;13129;48.012;10.352;2023-04-25T11:41:46;11.10;99.90
25170;DHT22;13129;48.012;10.352;2023-04-25T11:44:15;10.90;99.90
25170;DHT22;13129;48.012;10.352;2023-04-25T11:46:42;10.90;99.90
25170;DHT22;13129;48.012;10.352;2023-04-25T11:49:08;10.80;99.90
25170;DHT22;13129;48.012;10.352;2023-04-25T11:51:44;10.60;99.90
25170;DHT22;13129;48.012;10.352;2023-04-25T11:54:10;10.00;99.90
25170;DHT22;13129;48.012;10.352;2023-04-25T11:56:37;9.50;99.90
25170;DHT22;13129;48.012;10.352;2023-04-25T11:59:04;9.20;99.90
25170;DHT22;13129;48.012;10.352;2023-04-25T12:01:38;8.90;99.90
25170;DHT22;13129;48.012;10.352;2023-04-25T12:04:15;8.70;99.90
25170;DHT22;13129;48.012;10.352;2023-04-25T12:06:43;8.70;99.90
25170;DHT22;13129;48.012;10.352;2023-04-25T12:09:10;8.60;99.90
25170;DHT22;13129;48.012;10.352;2023-04-25T12:11:48;8.50;99.90
25170;DHT22;13129;48.012;10.352;2023-04-25T12:14:25;8.50;99.90
25170;DHT22;13129;48.012;10.352;2023-04-25T12:16:53;8.40;99.90
25170;DHT22;13129;48.012;10.352;2023-04-25T12:19:20;8.50;99.90
25170;DHT22;13129;48.012;10.352;2023-04-25T12:21:48;8.60;99.90
25170;DHT22;13129;48.012;10.352;2023-04-25T12:24:23;8.50;99.90
25170;DHT22;13129;48.012;10.352;2023-04-25T12:29:26;8.20;99.90
25170;DHT22;13129;48.012;10.352;2023-04-25T12:31:54;8.00;99.90
25170;DHT22;13129;48.012;10.352;2023-04-25T12:34:21;7.90;99.90
25170;DHT22;13129;48.012;10.352;2023-04-25T12:36:48;7.80;99.90
25170;DHT22;13129;48.012;10.352;2023-04-25T12:39:15;7.90;99.90
25170;DHT22;13129;48.012;10.352;2023-04-25T12:41:41;8.00;99.90
25170;DHT22;13129;48.012;10.352;2023-04-25T12:44:07;8.40;99.90
25170;DHT22;13129;48.012;10.352;2023-04-25T12:46:32;8.80;99.90
25170;DHT22;13129;48.012;10.352;2023-04-25T12:48:58;9.00;99.90
25170;DHT22;13129;48.012;10.352;2023-04-25T12:51:24;9.30;99.90
25170;DHT22;13129;48.012;10.352;2023-04-25T12:53:51;9.40;99.90
25170;DHT22;13129;48.012;10.352;2023-04-25T12:56:17;9.40;99.90
25170;DHT22;13129;48.012;10.352;2023-04-25T12:58:43;9.40;99.90
25170;DHT22;13129;48.012;10.352;2023-04-25T13:01:09;9.40;99.90
25170;DHT22;13129;48.012;10.352;2023-04-25T13:03:35;9.60;99.90
25170;DHT22;13129;48.012;10.352;2023-04-25T13:06:01;9.70;99.90
25170;DHT22;13129;48.012;10.352;2023-04-25T13:08:26;9.80;99.90
25170;DHT22;13129;48.012;10.352;2023-04-25T13:10:52;9.70;99.90
25170;DHT22;13129;48.012;10.352;2023-04-25T13:13:18;9.60;99.90
25170;DHT22;13129;48.012;10.352;2023-04-25T13:15:43;9.40;99.90
25170;DHT22;13129;48.012;10.352;2023-04-25T13:18:09;9.20;99.90
25170;DHT22;13129;48.012;10.352;2023-04-25T13:20:35;9.20;99.90
25170;DHT22;13129;48.012;10.352;2023-04-25T13:23:01;9.20;99.90
25170;DHT22;13129;48.012;10.352;2023-04-25T13:25:26;9.20;99.90
25170;DHT22;13129;48.012;10.352;2023-04-25T13:27:52;9.40;99.90
25170;DHT22;13129;48.012;10.352;2023-04-25T13:30:18;9.50;99.90
25170;DHT22;13129;48.012;10.352;2023-04-25T13:32:43;9.50;99.90
25170;DHT22;13129;48.012;10.352;2023-04-25T13:35:11;9.60;99.90
25170;DHT22;13129;48.012;10.352;2023-04-25T13:37:38;9.60;99.90
25170;DHT22;13129;48.012;10.352;2023-04-25T13:40:05;9.40;99.90
25170;DHT22;13129;48.012;10.352;2023-04-25T13:42:34;9.20;99.90
25170;DHT22;13129;48.012;10.352;2023-04-25T13:45:00;9.10;99.90
25170;DHT22;13129;48.012;10.352;2023-04-25T13:47:26;9.10;99.90
25170;DHT22;13129;48.012;10.352;2023-04-25T13:49:52;9.20;99.90
25170;DHT22;13129;48.012;10.352;2023-04-25T13:52:18;9.30;99.90
25170;DHT22;13129;48.012;10.352;2023-04-25T13:54:44;9.30;99.90
25170;DHT22;13129;48.012;10.352;2023-04-25T13:57:10;9.20;99.90
25170;DHT22;13129;48.012;10.352;2023-04-25T13:59:36;9.10;99.90
25170;DHT22;13129;48.012;10.352;2023-04-25T14:02:02;9.20;99.90
25170;DHT22;13129;48.012;10.352;2023-04-25T14:04:28;9.10;99.90
25170;DHT22;13129;48.012;10.352;2023-04-25T14:06:54;9.10;99.90
25170;DHT22;13129;48.012;10.352;2023-04-25T14:09:20;9.20;99.90
25170;DHT22;13129;48.012;10.352;2023-04-25T14:11:51;9.10;99.90
25170;DHT22;13129;48.012;10.352;2023-04-25T14:14:18;9.10;99.90
25170;DHT22;13129;48.012;10.352;2023-04-25T14:16:43;9.20;99.90
25170;DHT22;13129;48.012;10.352;2023-04-25T14:19:09;9.40;99.90
25170;DHT22;13129;48.012;10.352;2023-04-25T14:21:34;9.60;99.90
25170;DHT22;13129;48.012;10.352;2023-04-25T14:24:00;9.70;99.90
25170;DHT22;13129;48.012;10.352;2023-04-25T14:26:26;9.90;99.90
25170;DHT22;13129;48.012;10.352;2023-04-25T14:28:52;10.00;99.90
25170;DHT22;13129;48.012;10.352;2023-04-25T14:31:18;9.90;99.90
25170;DHT22;13129;48.012;10.352;2023-04-25T14:33:43;9.70;99.90
25170;DHT22;13129;48.012;10.352;2023-04-25T14:36:09;9.40;99.90
25170;DHT22;13129;48.012;10.352;2023-04-25T14:38:35;9.20;99.90
25170;DHT22;13129;48.012;10.352;2023-04-25T14:41:01;8.80;99.90
25170;DHT22;13129;48.012;10.352;2023-04-25T14:43:26;8.60;99.90
25170;DHT22;13129;48.012;10.352;2023-04-25T14:45:53;8.40;99.90
25170;DHT22;13129;48.012;10.352;2023-04-25T14:48:19;8.40;99.90
25170;DHT22;13129;48.012;10.352;2023-04-25T14:50:45;8.50;99.90
25170;DHT22;13129;48.012;10.352;2023-04-25T14:53:11;8.70;99.90
25170;DHT22;13129;48.012;10.352;2023-04-25T14:55:37;8.90;99.90
25170;DHT22;13129;48.012;10.352;2023-04-25T14:58:03;9.10;99.90
25170;DHT22;13129;48.012;10.352;2023-04-25T15:00:29;9.40;99.90
25170;DHT22;13129;48.012;10.352;2023-04-25T15:02:57;9.40;99.90
25170;DHT22;13129;48.012;10.352;2023-04-25T15:05:23;9.40;99.90
25170;DHT22;13129;48.012;10.352;2023-04-25T15:07:48;9.30;99.90
25170;DHT22;13129;48.012;10.352;2023-04-25T15:10:17;9.40;99.90
25170;DHT22;13129;48.012;10.352;2023-04-25T15:12:44;9.50;99.90
25170;DHT22;13129;48.012;10.352;2023-04-25T15:15:10;9.50;99.90
25170;DHT22;13129;48.012;10.352;2023-04-25T15:17:43;9.40;99.90
25170;DHT22;13129;48.012;10.352;2023-04-25T15:20:10;9.30;99.90
25170;DHT22;13129;48.012;10.352;2023-04-25T15:22:37;9.30;99.90
25170;DHT22;13129;48.012;10.352;2023-04-25T15:25:03;9.30;99.90
25170;DHT22;13129;48.012;10.352;2023-04-25T15:27:29;9.20;99.90
25170;DHT22;13129;48.012;10.352;2023-04-25T15:29:56;9.10;99.90
25170;DHT22;13129;48.012;10.352;2023-04-25T15:32:21;8.90;99.90
25170;DHT22;13129;48.012;10.352;2023-04-25T15:34:48;8.80;99.90
25170;DHT22;13129;48.012;10.352;2023-04-25T15:37:14;8.50;99.90
25170;DHT22;13129;48.012;10.352;2023-04-25T15:39:39;8.40;99.90
25170;DHT22;13129;48.012;10.352;2023-04-25T15:42:05;8.30;99.90
25170;DHT22;13129;48.012;10.352;2023-04-25T15:44:34;8.30;99.90
25170;DHT22;13129;48.012;10.352;2023-04-25T15:47:01;8.40;99.90
25170;DHT22;13129;48.012;10.352;2023-04-25T15:49:27;8.50;99.90
25170;DHT22;13129;48.012;10.352;2023-04-25T15:51:53;8.60;99.90
25170;DHT22;13129;48.012;10.352;2023-04-25T15:54:20;8.70;99.90
25170;DHT22;13129;48.012;10.352;2023-04-25T15:56:47;8.80;99.90
25170;DHT22;13129;48.012;10.352;2023-04-25T15:59:13;8.90;99.90
25170;DHT22;13129;48.012;10.352;2023-04-25T16:01:38;9.00;99.90
25170;DHT22;13129;48.012;10.352;2023-04-25T16:04:05;9.10;99.90
25170;DHT22;13129;48.012;10.352;2023-04-25T16:06:30;9.10;99.90
25170;DHT22;13129;48.012;10.352;2023-04-25T16:08:56;9.10;99.90
25170;DHT22;13129;48.012;10.352;2023-04-25T16:11:22;9.10;99.90
25170;DHT22;13129;48.012;10.352;2023-04-25T16:13:48;9.10;99.90
25170;DHT22;13129;48.012;10.352;2023-04-25T16:16:15;9.20;99.90
25170;DHT22;13129;48.012;10.352;2023-04-25T16:18:41;9.10;99.90
25170;DHT22;13129;48.012;10.352;2023-04-25T16:21:07;9.10;99.90
25170;DHT22;13129;48.012;10.352;2023-04-25T16:23:34;9.10;99.90
25170;DHT22;13129;48.012;10.352;2023-04-25T16:26:05;9.10;99.90
25170;DHT22;13129;48.012;10.352;2023-04-25T16:28:31;9.10;99.90
25170;DHT22;13129;48.012;10.352;2023-04-25T16:30:57;8.90;99.90
25170;DHT22;13129;48.012;10.352;2023-04-25T16:33:22;8.90;99.90
25170;DHT22;13129;48.012;10.352;2023-04-25T16:35:48;8.90;99.90
25170;DHT22;13129;48.012;10.352;2023-04-25T16:38:15;9.00;99.90
25170;DHT22;13129;48.012;10.352;2023-04-25T16:40:40;9.10;99.90
25170;DHT22;13129;48.012;10.352;2023-04-25T16:43:06;9.10;99.90
25170;DHT22;13129;48.012;10.352;2023-04-25T16:45:32;9.10;99.90
25170;DHT22;13129;48.012;10.352;2023-04-25T16:47:57;9.00;99.90
25170;DHT22;13129;48.012;10.352;2023-04-25T16:50:23;8.90;99.90
25170;DHT22;13129;48.012;10.352;2023-04-25T16:52:49;8.70;99.90
25170;DHT22;13129;48.012;10.352;2023-04-25T16:55:15;8.60;99.90
25170;DHT22;13129;48.012;10.352;2023-04-25T16:57:41;8.50;99.90
25170;DHT22;13129;48.012;10.352;2023-04-25T17:00:07;8.40;99.90
25170;DHT22;13129;48.012;10.352;2023-04-25T17:02:34;8.40;99.90
25170;DHT22;13129;48.012;10.352;2023-04-25T17:04:59;8.50;99.90
25170;DHT22;13129;48.012;10.352;2023-04-25T17:07:25;8.60;99.90
25170;DHT22;13129;48.012;10.352;2023-04-25T17:09:51;8.70;99.90
25170;DHT22;13129;48.012;10.352;2023-04-25T17:12:17;8.70;99.90
25170;DHT22;13129;48.012;10.352;2023-04-25T17:14:44;8.70;99.90
25170;DHT22;13129;48.012;10.352;2023-04-25T17:17:11;8.70;99.90
25170;DHT22;13129;48.012;10.352;2023-04-25T17:19:37;8.60;99.90
25170;DHT22;13129;48.012;10.352;2023-04-25T17:22:02;8.50;99.90
25170;DHT22;13129;48.012;10.352;2023-04-25T17:24:28;8.30;99.90
25170;DHT22;13129;48.012;10.352;2023-04-25T17:26:54;8.10;99.90
25170;DHT22;13129;48.012;10.352;2023-04-25T17:29:21;8.00;99.90
25170;DHT22;13129;48.012;10.352;2023-04-25T17:31:48;7.90;99.90
25170;DHT22;13129;48.012;10.352;2023-04-25T17:34:14;7.70;99.90
25170;DHT22;13129;48.012;10.352;2023-04-25T17:36:43;7.50;99.90
25170;DHT22;13129;48.012;10.352;2023-04-25T17:39:09;7.30;99.90
25170;DHT22;13129;48.012;10.352;2023-04-25T17:41:36;7.20;99.90
25170;DHT22;13129;48.012;10.352;2023-04-25T17:44:02;7.10;99.90
25170;DHT22;13129;48.012;10.352;2023-04-25T17:46:28;7.00;99.90
25170;DHT22;13129;48.012;10.352;2023-04-25T17:48:55;7.00;99.90
25170;DHT22;13129;48.012;10.352;2023-04-25T17:51:22;7.00;99.90
25170;DHT22;13129;48.012;10.352;2023-04-25T17:53:47;7.00;99.90
25170;DHT22;13129;48.012;10.352;2023-04-25T17:56:13;7.10;99.90
25170;DHT22;13129;48.012;10.352;2023-04-25T17:58:38;7.10;99.90
25170;DHT22;13129;48.012;10.352;2023-04-25T18:01:04;7.00;99.90
25170;DHT22;13129;48.012;10.352;2023-04-25T18:03:30;7.00;99.90
25170;DHT22;13129;48.012;10.352;2023-04-25T18:05:56;6.90;99.90
25170;DHT22;13129;48.012;10.352;2023-04-25T18:08:22;6.90;99.90
25170;DHT22;13129;48.012;10.352;2023-04-25T18:10:47;6.90;99.90
25170;DHT22;13129;48.012;10.352;2023-04-25T18:13:13;6.80;99.90
25170;DHT22;13129;48.012;10.352;2023-04-25T18:15:39;6.80;99.90
25170;DHT22;13129;48.012;10.352;2023-04-25T18:18:05;6.90;99.90
25170;DHT22;13129;48.012;10.352;2023-04-25T18:20:40;6.90;99.90
25170;DHT22;13129;48.012;10.352;2023-04-25T18:23:06;6.90;99.90
25170;DHT22;13129;48.012;10.352;2023-04-25T18:25:33;6.90;99.90
25170;DHT22;13129;48.012;10.352;2023-04-25T18:27:59;6.90;99.90
25170;DHT22;13129;48.012;10.352;2023-04-25T18:30:24;6.90;99.90
25170;DHT22;13129;48.012;10.352;2023-04-25T18:32:51;6.90;99.90
25170;DHT22;13129;48.012;10.352;2023-04-25T18:35:16;6.90;99.90
25170;DHT22;13129;48.012;10.352;2023-04-25T18:37:42;7.00;99.90
25170;DHT22;13129;48.012;10.352;2023-04-25T18:40:09;7.00;99.90
25170;DHT22;13129;48.012;10.352;2023-04-25T18:42:38;7.00;99.90
25170;DHT22;13129;48.012;10.352;2023-04-25T18:45:04;7.00;99.90
25170;DHT22;13129;48.012;10.352;2023-04-25T18:47:30;6.90;99.90
25170;DHT22;13129;48.012;10.352;2023-04-25T18:49:55;6.80;99.90
25170;DHT22;13129;48.012;10.352;2023-04-25T18:52:22;6.80;99.90
25170;DHT22;13129;48.012;10.352;2023-04-25T18:54:48;6.80;99.90
25170;DHT22;13129;48.012;10.352;2023-04-25T18:57:13;6.80;99.90
25170;DHT22;13129;48.012;10.352;2023-04-25T18:59:43;6.80;99.90
25170;DHT22;13129;48.012;10.352;2023-04-25T19:02:10;6.90;99.90
25170;DHT22;13129;48.012;10.352;2023-04-25T19:04:36;6.90;99.90